Time;durP1;ratioP1;P1;durP2;ratioP2;P2;SDS_P1;SDS_P2;PMS_P1;PMS_P2;Temp;Humidity;BMP_temperature;BMP_pressure;BME280_temperature;BME280_humidity;BME280_pressure;Samples;Min_cycle;Max_cycle;Signal;HPM_P1;HPM_P2
2022/08/29 00:02:24;;;;;;;6.70;2.60;;;17.10;97.10;;;;;;5070159;28;20050;-61
2022/08/29 00:04:50;;;;;;;6.40;2.97;;;17.00;97.10;;;;;;5039577;28;20044;-61
2022/08/29 00:07:17;;;;;;;11.68;3.65;;;17.00;97.10;;;;;;5064077;28;20051;-62
2022/08/29 00:09:42;;;;;;;10.20;3.80;;;17.00;96.90;;;;;;5052956;28;20047;-60
2022/08/29 00:12:08;;;;;;;5.65;2.28;;;17.00;96.90;;;;;;5052193;28;20063;-60
2022/08/29 00:14:34;;;;;;;5.68;2.75;;;17.00;96.80;;;;;;5060041;28;20073;-60
2022/08/29 00:17:00;;;;;;;6.70;3.28;;;17.10;96.80;;;;;;5055852;28;20386;-61
2022/08/29 00:19:26;;;;;;;6.25;2.42;;;17.10;96.90;;;;;;5047359;28;20051;-60
2022/08/29 00:21:52;;;;;;;5.50;2.83;;;17.10;96.90;;;;;;5038570;28;20044;-61
2022/08/29 00:24:18;;;;;;;6.63;3.28;;;17.10;96.90;;;;;;5049154;28;20037;-60
2022/08/29 00:26:44;;;;;;;10.20;3.20;;;17.10;96.80;;;;;;5075249;28;20059;-61
2022/08/29 00:29:10;;;;;;;5.38;3.40;;;17.10;96.80;;;;;;5053790;28;20418;-61
2022/08/29 00:31:36;;;;;;;7.43;3.00;;;17.10;96.70;;;;;;5071868;28;20575;-61
2022/08/29 00:34:02;;;;;;;6.65;2.65;;;17.10;96.70;;;;;;5053637;28;20092;-60
2022/08/29 00:36:28;;;;;;;7.13;3.33;;;17.10;96.70;;;;;;5043965;28;20040;-59
2022/08/29 00:38:53;;;;;;;6.40;2.30;;;17.10;96.80;;;;;;5079539;28;20043;-58
2022/08/29 00:41:19;;;;;;;4.72;2.25;;;17.10;96.70;;;;;;5054652;28;20044;-61
2022/08/29 00:43:45;;;;;;;4.05;2.42;;;17.10;97.00;;;;;;5058253;28;20036;-61
2022/08/29 00:46:23;;;;;;;4.80;2.42;;;17.10;96.80;;;;;;5055905;28;20093;-60
2022/08/29 00:48:54;;;;;;;9.82;3.95;;;17.10;96.80;;;;;;5057395;28;20063;-61
2022/08/29 00:51:20;;;;;;;6.75;3.13;;;17.10;96.80;;;;;;5040365;28;20126;-61
2022/08/29 00:53:52;;;;;;;7.28;3.13;;;17.10;96.90;;;;;;5043560;28;20047;-60
2022/08/29 00:56:18;;;;;;;10.15;3.83;;;17.10;96.80;;;;;;5051755;28;20090;-61
2022/08/29 00:58:49;;;;;;;8.77;3.15;;;17.10;96.80;;;;;;5046180;28;20393;-60
2022/08/29 01:01:15;;;;;;;7.95;3.13;;;17.10;96.80;;;;;;5054751;28;20184;-60
2022/08/29 01:03:42;;;;;;;7.63;3.05;;;17.10;96.80;;;;;;5035125;28;20044;-61
2022/08/29 01:06:08;;;;;;;7.95;3.53;;;17.00;96.80;;;;;;5059433;28;20193;-59
2022/08/29 01:08:34;;;;;;;6.82;2.70;;;17.10;96.80;;;;;;5054612;28;20043;-61
2022/08/29 01:13:48;;;;;;;5.70;2.83;;;17.00;96.90;;;;;;5037982;28;20048;-60
2022/08/29 01:16:15;;;;;;;7.97;3.10;;;17.00;97.00;;;;;;5037429;28;20139;-61
2022/08/29 01:18:45;;;;;;;8.32;3.10;;;17.00;97.20;;;;;;5058014;28;20095;-60
2022/08/29 01:21:52;;;;;;;8.70;3.20;;;17.00;97.30;;;;;;5057527;28;20039;-60
2022/08/29 01:24:31;;;;;;;8.38;3.13;;;17.00;97.50;;;;;;5047891;28;20420;-59
2022/08/29 01:26:57;;;;;;;8.88;3.08;;;17.00;97.70;;;;;;5055243;28;20127;-61
2022/08/29 01:29:23;;;;;;;4.97;3.15;;;17.00;97.80;;;;;;5055754;28;20705;-58
2022/08/29 01:31:50;;;;;;;4.75;2.75;;;17.10;97.80;;;;;;5067888;28;20051;-59
2022/08/29 01:34:19;;;;;;;6.93;3.17;;;17.10;97.90;;;;;;5052146;28;20512;-59
2022/08/29 01:37:16;;;;;;;6.60;3.30;;;17.10;98.00;;;;;;5058597;28;20035;-59
2022/08/29 01:39:43;;;;;;;8.68;3.05;;;17.00;98.00;;;;;;5031279;28;20052;-59
2022/08/29 01:42:20;;;;;;;7.05;3.13;;;17.10;98.20;;;;;;5043316;28;20048;-60
2022/08/29 01:44:54;;;;;;;5.78;2.90;;;17.10;98.30;;;;;;5043044;28;20058;-60
2022/08/29 01:47:23;;;;;;;5.68;2.92;;;17.10;98.30;;;;;;5053270;28;20054;-59
2022/08/29 01:49:49;;;;;;;6.70;3.15;;;17.10;98.40;;;;;;5049781;28;20060;-59
2022/08/29 01:52:15;;;;;;;8.93;2.78;;;17.10;98.50;;;;;;5070488;28;20041;-59
2022/08/29 01:54:42;;;;;;;8.35;3.38;;;17.00;98.60;;;;;;5074363;28;20495;-59
2022/08/29 01:57:09;;;;;;;6.65;2.97;;;17.00;98.80;;;;;;5054174;28;20040;-59
2022/08/29 01:59:35;;;;;;;8.38;2.90;;;17.00;99.00;;;;;;5058061;28;20055;-59
2022/08/29 02:02:19;;;;;;;7.20;3.30;;;17.00;99.10;;;;;;5053293;28;20059;-59
2022/08/29 02:04:46;;;;;;;7.03;3.30;;;17.00;99.30;;;;;;5056023;28;20086;-60
2022/08/29 02:07:12;;;;;;;6.55;2.97;;;16.90;99.40;;;;;;5053190;28;20054;-59
2022/08/29 02:09:39;;;;;;;7.53;2.65;;;17.00;99.60;;;;;;5038816;28;20491;-59
2022/08/29 02:12:06;;;;;;;6.28;2.38;;;17.00;99.70;;;;;;5036462;28;20486;-60
2022/08/29 02:14:33;;;;;;;7.53;3.22;;;16.90;99.70;;;;;;5040250;28;20048;-59
2022/08/29 02:17:01;;;;;;;7.68;3.20;;;17.00;99.80;;;;;;5040599;28;20044;-59
2022/08/29 02:19:27;;;;;;;5.70;3.13;;;16.90;99.80;;;;;;5067471;28;20491;-58
2022/08/29 02:21:53;;;;;;;8.98;3.33;;;16.90;99.90;;;;;;5050968;28;20047;-60
2022/08/29 02:24:19;;;;;;;5.55;2.92;;;16.90;99.90;;;;;;5086021;22;20078;-62
2022/08/29 02:26:45;;;;;;;5.75;3.10;;;16.90;99.90;;;;;;5075131;28;20093;-63
2022/08/29 02:29:11;;;;;;;8.30;3.20;;;16.90;99.90;;;;;;5071919;28;20040;-63
2022/08/29 02:31:38;;;;;;;9.15;3.22;;;16.90;99.90;;;;;;5074762;28;20558;-62
2022/08/29 02:34:06;;;;;;;7.55;3.70;;;16.90;99.90;;;;;;5044130;28;20109;-63
2022/08/29 02:36:32;;;;;;;7.50;3.42;;;16.90;99.90;;;;;;5052212;28;20126;-63
2022/08/29 02:38:57;;;;;;;6.97;3.58;;;16.90;99.90;;;;;;5032247;28;20032;-62
2022/08/29 02:41:23;;;;;;;7.65;2.80;;;16.90;99.90;;;;;;5048947;28;20044;-63
2022/08/29 02:43:49;;;;;;;7.25;2.88;;;16.90;99.90;;;;;;5066977;28;20114;-62
2022/08/29 02:46:16;;;;;;;6.03;2.83;;;17.00;99.90;;;;;;5035213;28;20107;-64
2022/08/29 02:48:44;;;;;;;7.93;3.72;;;17.00;99.90;;;;;;5053095;28;20502;-63
2022/08/29 02:51:10;;;;;;;6.95;3.20;;;17.00;99.90;;;;;;5021982;28;20120;-63
2022/08/29 02:53:35;;;;;;;6.45;2.85;;;17.00;99.90;;;;;;5039088;28;20336;-61
2022/08/29 02:56:01;;;;;;;7.90;3.20;;;17.00;99.90;;;;;;5040072;28;20072;-63
2022/08/29 02:58:27;;;;;;;9.20;2.88;;;17.00;99.90;;;;;;5034332;28;20047;-64
2022/08/29 03:00:53;;;;;;;6.80;3.60;;;16.90;99.90;;;;;;5046794;28;20047;-63
2022/08/29 03:03:20;;;;;;;6.80;3.20;;;17.00;99.90;;;;;;5039051;28;20043;-63
2022/08/29 03:05:46;;;;;;;9.07;4.18;;;17.00;99.90;;;;;;5030964;28;20036;-64
2022/08/29 03:08:12;;;;;;;6.93;3.50;;;17.00;99.90;;;;;;5037159;28;20036;-64
2022/08/29 03:10:39;;;;;;;8.75;3.80;;;17.00;99.90;;;;;;5053596;28;20511;-65
2022/08/29 03:13:05;;;;;;;11.30;3.63;;;17.00;99.90;;;;;;5036737;28;20304;-64
2022/08/29 03:15:31;;;;;;;7.65;3.25;;;17.00;99.90;;;;;;5037656;28;20033;-64
2022/08/29 03:17:57;;;;;;;8.00;3.42;;;16.90;99.90;;;;;;5016550;28;20072;-62
2022/08/29 03:20:24;;;;;;;6.32;3.28;;;16.90;99.90;;;;;;5039381;28;20120;-65
2022/08/29 03:22:52;;;;;;;6.30;3.20;;;16.80;99.90;;;;;;5028035;28;20499;-65
2022/08/29 03:25:19;;;;;;;6.75;3.08;;;16.80;99.90;;;;;;5016187;28;20128;-65
2022/08/29 03:27:45;;;;;;;6.15;3.25;;;16.80;99.90;;;;;;5017993;28;20483;-63
2022/08/29 03:30:13;;;;;;;7.75;3.38;;;16.80;99.90;;;;;;5042807;28;20040;-63
2022/08/29 03:32:40;;;;;;;8.95;3.60;;;16.80;99.90;;;;;;5046103;28;20047;-63
2022/08/29 03:35:07;;;;;;;12.63;3.30;;;16.80;99.90;;;;;;5043406;28;20066;-63
2022/08/29 03:37:33;;;;;;;8.85;3.38;;;16.80;99.90;;;;;;5030949;28;20554;-61
2022/08/29 03:40:00;;;;;;;4.93;2.53;;;16.90;99.90;;;;;;5013411;28;20051;-64
2022/08/29 03:42:25;;;;;;;9.45;2.88;;;16.90;99.90;;;;;;5016783;28;20522;-63
2022/08/29 03:44:51;;;;;;;5.45;2.58;;;16.90;99.90;;;;;;5039735;28;20124;-60
2022/08/29 03:47:17;;;;;;;9.15;3.28;;;16.90;99.90;;;;;;5031711;28;20403;-62
2022/08/29 03:49:43;;;;;;;9.45;3.03;;;16.80;99.90;;;;;;5039912;28;20040;-63
2022/08/29 03:52:09;;;;;;;9.10;3.17;;;16.90;99.90;;;;;;5057130;28;20055;-64
2022/08/29 03:54:36;;;;;;;7.03;3.30;;;16.90;99.90;;;;;;5035363;28;20057;-64
2022/08/29 03:57:04;;;;;;;7.82;2.70;;;16.90;99.90;;;;;;5044755;28;20135;-64
2022/08/29 03:59:30;;;;;;;6.68;2.92;;;16.90;99.90;;;;;;5031538;28;20492;-65
2022/08/29 04:01:57;;;;;;;6.07;2.78;;;17.00;99.90;;;;;;5028332;28;20040;-60
2022/08/29 04:07:08;;;;;;;6.30;3.15;;;17.00;99.90;;;;;;5030354;28;20040;-65
2022/08/29 04:09:35;;;;;;;8.75;3.50;;;17.00;99.90;;;;;;5053129;28;20434;-63
2022/08/29 04:12:01;;;;;;;4.97;3.08;;;17.00;99.90;;;;;;5067251;28;20538;-63
2022/08/29 04:14:28;;;;;;;6.22;3.13;;;17.00;99.90;;;;;;5045644;28;20040;-63
2022/08/29 04:16:54;;;;;;;6.85;2.58;;;17.00;99.90;;;;;;5035166;28;20044;-63
2022/08/29 04:19:21;;;;;;;5.95;2.85;;;17.00;99.90;;;;;;5057144;28;20029;-63
2022/08/29 04:21:50;;;;;;;7.53;2.63;;;17.00;99.90;;;;;;5058465;28;20130;-62
2022/08/29 04:24:18;;;;;;;7.45;2.67;;;17.00;99.90;;;;;;5049599;28;20103;-63
2022/08/29 04:26:44;;;;;;;6.32;2.15;;;16.90;99.90;;;;;;5042019;28;20096;-62
2022/08/29 04:29:12;;;;;;;7.13;2.63;;;16.90;99.90;;;;;;5051345;28;20033;-63
2022/08/29 04:31:41;;;;;;;7.32;2.60;;;16.90;99.90;;;;;;5035416;28;20051;-62
2022/08/29 04:34:09;;;;;;;6.20;2.47;;;16.80;99.90;;;;;;5043262;28;20080;-63
2022/08/29 04:36:41;;;;;;;7.15;2.30;;;16.80;99.90;;;;;;5058314;28;20477;-63
2022/08/29 04:39:08;;;;;;;7.55;2.10;;;16.80;99.90;;;;;;5052870;28;20092;-62
2022/08/29 04:41:34;;;;;;;5.57;2.60;;;16.80;99.90;;;;;;5038494;28;20110;-62
2022/08/29 04:44:01;;;;;;;7.20;2.95;;;16.80;99.90;;;;;;5046970;28;20490;-64
2022/08/29 04:46:27;;;;;;;6.65;2.97;;;16.80;99.90;;;;;;5053194;28;20408;-62
2022/08/29 04:48:53;;;;;;;6.88;2.25;;;16.80;99.90;;;;;;5044940;28;20041;-60
2022/08/29 04:51:20;;;;;;;6.68;2.42;;;16.80;99.90;;;;;;5015212;28;20068;-63
2022/08/29 04:53:47;;;;;;;6.65;2.50;;;16.80;99.90;;;;;;5049422;28;20067;-63
2022/08/29 04:56:13;;;;;;;5.93;2.30;;;16.90;99.90;;;;;;5050055;28;20044;-62
2022/08/29 04:58:41;;;;;;;4.57;2.10;;;16.90;99.90;;;;;;5049353;28;20044;-62
2022/08/29 05:01:10;;;;;;;7.78;2.28;;;16.90;99.90;;;;;;5043493;28;20104;-62
2022/08/29 05:03:36;;;;;;;7.85;2.75;;;16.90;99.90;;;;;;5061160;28;20044;-63
2022/08/29 05:06:06;;;;;;;4.07;2.08;;;16.90;99.90;;;;;;5047143;28;20407;-61
2022/08/29 05:08:33;;;;;;;7.82;2.42;;;16.60;99.90;;;;;;5053534;28;20091;-63
2022/08/29 05:10:59;;;;;;;7.25;2.20;;;16.90;99.90;;;;;;5034689;28;20044;-61
2022/08/29 05:13:26;;;;;;;8.65;2.35;;;16.80;99.90;;;;;;5036583;28;20032;-63
2022/08/29 05:15:52;;;;;;;7.95;2.17;;;16.80;99.90;;;;;;5043580;28;20079;-63
2022/08/29 05:18:18;;;;;;;8.23;2.17;;;16.80;99.90;;;;;;5034338;28;20563;-61
2022/08/29 05:20:46;;;;;;;11.07;2.47;;;16.80;99.90;;;;;;5040277;28;20032;-63
2022/08/29 05:23:12;;;;;;;9.48;2.63;;;16.80;99.90;;;;;;5053078;28;20045;-63
2022/08/29 05:25:39;;;;;;;5.93;2.42;;;16.80;99.90;;;;;;5041294;28;20035;-62
2022/08/29 05:28:05;;;;;;;11.82;2.78;;;16.80;99.90;;;;;;5030496;28;20032;-61
2022/08/29 05:30:31;;;;;;;5.95;2.08;;;16.80;99.90;;;;;;5047267;28;20025;-62
2022/08/29 05:32:58;;;;;;;10.50;2.42;;;16.80;99.90;;;;;;5054098;28;20546;-62
2022/08/29 05:35:25;;;;;;;7.07;2.55;;;16.80;99.90;;;;;;5055461;28;20037;-62
2022/08/29 05:37:51;;;;;;;6.57;2.28;;;16.80;99.90;;;;;;5038037;28;20041;-63
2022/08/29 05:40:17;;;;;;;6.18;2.47;;;16.90;99.90;;;;;;5046162;28;20040;-62
2022/08/29 05:42:42;;;;;;;9.73;2.70;;;16.90;99.90;;;;;;5052415;28;20066;-62
2022/08/29 05:45:09;;;;;;;6.65;2.60;;;17.00;99.90;;;;;;5018299;28;20074;-63
2022/08/29 05:47:35;;;;;;;7.78;2.47;;;16.90;99.90;;;;;;5053037;28;20075;-62
2022/08/29 05:50:01;;;;;;;8.02;3.13;;;17.00;99.90;;;;;;5053517;28;20174;-63
2022/08/29 05:52:27;;;;;;;8.73;2.80;;;17.00;99.90;;;;;;5038017;28;20060;-61
2022/08/29 05:54:53;;;;;;;6.53;2.60;;;17.00;99.90;;;;;;5040265;28;20040;-60
2022/08/29 05:57:22;;;;;;;13.13;3.50;;;17.00;99.90;;;;;;5030134;28;20391;-62
2022/08/29 05:59:49;;;;;;;10.40;2.95;;;17.10;99.90;;;;;;5036217;28;20049;-62
2022/08/29 06:02:16;;;;;;;9.90;3.33;;;17.20;99.90;;;;;;5025535;28;20867;-64
2022/08/29 06:04:42;;;;;;;12.73;3.30;;;17.20;99.90;;;;;;5046685;28;20434;-62
2022/08/29 06:07:09;;;;;;;12.50;3.17;;;17.20;99.90;;;;;;5051466;28;20479;-62
2022/08/29 06:09:37;;;;;;;10.93;3.10;;;17.20;99.90;;;;;;5055554;28;20045;-64
2022/08/29 06:12:04;;;;;;;8.32;2.80;;;17.20;99.90;;;;;;5029439;28;20523;-63
2022/08/29 06:14:30;;;;;;;10.45;2.58;;;17.20;99.90;;;;;;5052740;28;20037;-62
2022/08/29 06:16:56;;;;;;;8.90;2.67;;;17.20;99.90;;;;;;5050628;28;20056;-61
2022/08/29 06:19:22;;;;;;;13.77;2.88;;;17.30;99.90;;;;;;5056139;28;20036;-63
2022/08/29 06:21:48;;;;;;;8.05;3.08;;;17.30;99.90;;;;;;5054749;28;20072;-63
2022/08/29 06:24:15;;;;;;;9.13;2.78;;;17.30;99.90;;;;;;5048761;28;20126;-61
2022/08/29 06:26:42;;;;;;;9.45;2.80;;;17.30;99.90;;;;;;5053822;28;20033;-63
2022/08/29 06:29:09;;;;;;;8.75;2.75;;;17.30;99.90;;;;;;5053523;28;20045;-63
2022/08/29 06:31:35;;;;;;;7.90;2.75;;;17.40;99.90;;;;;;5044916;28;20120;-64
2022/08/29 06:34:03;;;;;;;7.13;2.47;;;17.40;99.90;;;;;;5027936;28;20093;-61
2022/08/29 06:36:30;;;;;;;11.52;3.05;;;17.40;99.90;;;;;;5039630;28;20105;-63
2022/08/29 06:39:00;;;;;;;8.23;2.58;;;17.40;99.90;;;;;;5055207;28;20260;-62
2022/08/29 06:41:27;;;;;;;8.90;3.00;;;17.50;99.90;;;;;;5040942;28;20131;-63
2022/08/29 06:43:56;;;;;;;11.95;3.10;;;17.50;99.90;;;;;;5056206;28;20072;-64
2022/08/29 06:46:41;;;;;;;9.15;2.55;;;17.50;99.90;;;;;;5056087;28;20032;-64
2022/08/29 06:49:13;;;;;;;10.85;2.97;;;17.50;99.90;;;;;;5042895;28;20127;-63
2022/08/29 06:51:42;;;;;;;7.78;2.55;;;17.60;99.90;;;;;;5059726;28;20043;-63
2022/08/29 06:54:10;;;;;;;10.13;3.03;;;17.60;99.90;;;;;;5049123;28;20036;-64
2022/08/29 06:56:36;;;;;;;6.00;2.95;;;17.70;99.90;;;;;;5068283;28;20520;-62
2022/08/29 06:59:02;;;;;;;6.20;2.30;;;17.70;99.90;;;;;;5055194;28;20170;-61
2022/08/29 07:01:28;;;;;;;6.13;2.83;;;17.80;99.90;;;;;;5066466;28;20275;-62
2022/08/29 07:03:55;;;;;;;5.95;2.83;;;17.80;99.90;;;;;;5059745;28;20546;-62
2022/08/29 07:06:22;;;;;;;9.93;2.97;;;17.90;99.90;;;;;;5065195;28;20449;-61
2022/08/29 07:08:48;;;;;;;8.77;2.55;;;18.00;99.90;;;;;;5055139;28;20123;-61
2022/08/29 07:11:14;;;;;;;9.20;2.42;;;18.00;99.90;;;;;;5042525;28;20101;-60
2022/08/29 07:13:40;;;;;;;8.07;2.17;;;18.10;99.90;;;;;;5055757;28;20041;-61
2022/08/29 07:16:13;;;;;;;7.45;2.25;;;18.20;99.90;;;;;;5053333;28;20075;-63
2022/08/29 07:18:39;;;;;;;4.50;2.15;;;18.20;99.90;;;;;;5062959;28;20119;-62
2022/08/29 07:21:10;;;;;;;7.78;2.25;;;18.30;99.90;;;;;;5055519;28;20034;-62
2022/08/29 07:23:36;;;;;;;8.35;2.70;;;18.40;99.90;;;;;;5065039;28;20558;-62
2022/08/29 07:26:21;;;;;;;367.05;56.20;;;18.50;99.90;;;;;;5045399;28;20372;-61
2022/08/29 07:28:49;;;;;;;502.00;96.35;;;18.60;99.90;;;;;;5059150;28;20268;-60
2022/08/29 07:31:15;;;;;;;265.48;53.15;;;18.60;99.90;;;;;;5055525;28;20033;-61
2022/08/29 07:33:41;;;;;;;116.95;18.35;;;18.70;99.90;;;;;;5060332;28;20107;-63
2022/08/29 07:36:07;;;;;;;141.57;19.35;;;18.70;99.90;;;;;;5037862;28;20052;-61
2022/08/29 07:38:37;;;;;;;21.80;4.18;;;18.80;99.90;;;;;;5065598;28;20082;-63
2022/08/29 07:41:09;;;;;;;33.22;6.88;;;19.00;99.90;;;;;;5063845;28;20052;-64
2022/08/29 07:43:35;;;;;;;16.33;3.80;;;19.00;99.90;;;;;;5062841;28;20037;-63
2022/08/29 07:46:10;;;;;;;11.95;3.45;;;19.10;99.90;;;;;;5060361;28;20097;-63
2022/08/29 07:48:36;;;;;;;15.80;3.67;;;19.20;99.90;;;;;;5027355;28;20072;-61
2022/08/29 07:51:06;;;;;;;8.27;2.55;;;19.30;99.90;;;;;;5071277;28;20455;-63
2022/08/29 07:53:32;;;;;;;11.05;3.33;;;19.40;99.90;;;;;;5050714;28;20303;-64
2022/08/29 07:55:57;;;;;;;6.38;2.65;;;19.60;99.90;;;;;;5058708;28;20029;-63
2022/08/29 07:58:23;;;;;;;5.72;2.25;;;19.80;99.90;;;;;;5066293;28;20173;-63
2022/08/29 08:00:49;;;;;;;14.05;3.05;;;19.80;99.90;;;;;;5056747;28;20508;-62
2022/08/29 08:03:15;;;;;;;5.28;2.05;;;19.90;99.90;;;;;;5056827;28;20060;-61
2022/08/29 08:05:40;;;;;;;8.20;2.30;;;20.00;99.90;;;;;;5040041;28;20380;-64
2022/08/29 08:08:08;;;;;;;5.68;1.92;;;20.10;99.90;;;;;;5049034;28;20075;-64
2022/08/29 08:10:37;;;;;;;8.93;1.98;;;20.20;99.90;;;;;;5050384;28;20107;-63
2022/08/29 08:13:02;;;;;;;5.95;2.10;;;20.10;99.90;;;;;;5045947;28;20048;-62
2022/08/29 08:15:28;;;;;;;5.70;1.83;;;20.20;99.90;;;;;;5046669;28;20487;-61
2022/08/29 08:17:54;;;;;;;7.57;2.38;;;20.20;99.90;;;;;;5042254;28;20127;-61
2022/08/29 08:20:19;;;;;;;5.65;2.17;;;20.30;99.90;;;;;;5045418;28;20056;-63
2022/08/29 08:22:45;;;;;;;4.68;1.63;;;20.30;99.90;;;;;;5049700;28;20041;-62
2022/08/29 08:25:18;;;;;;;6.03;1.85;;;20.20;99.90;;;;;;5055246;22;20423;-87
2022/08/29 08:27:57;;;;;;;4.88;1.83;;;20.10;99.90;;;;;;5022213;28;20505;-87
2022/08/29 08:30:23;;;;;;;6.50;2.08;;;20.10;99.90;;;;;;5026068;28;20060;-87
2022/08/29 08:32:53;;;;;;;7.03;2.35;;;20.10;99.90;;;;;;5021720;28;20123;-83
2022/08/29 08:35:48;;;;;;;5.68;2.42;;;19.80;99.90;;;;;;5025949;28;20128;-85
2022/08/29 08:38:21;;;;;;;6.75;2.00;;;19.90;99.90;;;;;;5011494;28;20072;-86
2022/08/29 08:41:32;;;;;;;5.22;2.08;;;20.80;99.90;;;;;;5030609;28;20029;-84
2022/08/29 08:44:20;;;;;;;4.90;2.35;;;20.10;99.90;;;;;;5042800;22;20513;-61
2022/08/29 08:46:50;;;;;;;8.80;2.35;;;20.20;99.90;;;;;;5045928;28;20135;-61
2022/08/29 08:49:28;;;;;;;9.68;2.05;;;20.30;99.90;;;;;;5075121;28;20467;-60
2022/08/29 08:52:00;;;;;;;7.38;2.10;;;20.40;99.90;;;;;;5055767;28;20594;-61
2022/08/29 08:54:30;;;;;;;9.68;2.35;;;20.40;99.90;;;;;;5045632;28;20047;-60
2022/08/29 08:57:09;;;;;;;5.15;1.88;;;20.50;99.90;;;;;;5061720;28;20110;-60
2022/08/29 08:59:42;;;;;;;10.00;2.05;;;20.70;99.90;;;;;;5078218;28;20548;-60
2022/08/29 09:02:10;;;;;;;6.63;2.88;;;20.80;99.90;;;;;;5057843;28;20082;-60
2022/08/29 09:04:55;;;;;;;7.45;3.08;;;20.80;99.90;;;;;;5055593;28;20120;-60
2022/08/29 09:07:39;;;;;;;8.07;2.53;;;20.80;99.90;;;;;;5061194;28;20044;-59
2022/08/29 09:10:08;;;;;;;9.20;2.92;;;20.90;99.90;;;;;;5056431;28;20433;-61
2022/08/29 09:12:33;;;;;;;5.85;2.38;;;20.80;99.90;;;;;;5062844;28;20039;-60
2022/08/29 09:15:02;;;;;;;7.68;2.55;;;20.90;99.90;;;;;;5060641;28;20082;-61
2022/08/29 09:17:49;;;;;;;8.98;2.63;;;20.90;99.90;;;;;;5054325;28;20502;-60
2022/08/29 09:20:27;;;;;;;10.20;2.53;;;20.90;99.90;;;;;;5057793;28;20065;-60
2022/08/29 09:23:28;;;;;;;7.72;2.63;;;20.90;99.90;;;;;;5043138;28;20051;-60
2022/08/29 09:25:54;;;;;;;8.40;2.65;;;20.90;99.90;;;;;;5048045;28;20041;-61
2022/08/29 09:28:20;;;;;;;6.90;2.35;;;21.10;99.90;;;;;;5043666;28;20042;-61
2022/08/29 09:31:26;;;;;;;6.38;2.42;;;21.30;99.90;;;;;;5053818;28;20035;-63
2022/08/29 09:34:11;;;;;;;9.00;2.72;;;21.50;99.70;;;;;;5057894;28;20119;-62
2022/08/29 09:36:39;;;;;;;6.28;2.17;;;21.70;99.60;;;;;;5047597;28;20042;-62
2022/08/29 09:39:09;;;;;;;4.15;2.25;;;21.80;99.60;;;;;;5047241;28;20329;-62
2022/08/29 09:41:35;;;;;;;7.95;2.63;;;21.90;99.30;;;;;;5060616;28;20066;-62
2022/08/29 09:44:01;;;;;;;10.70;3.38;;;21.80;99.60;;;;;;5046748;28;20471;-62
2022/08/29 09:46:27;;;;;;;9.65;2.78;;;21.70;99.90;;;;;;5064824;28;20047;-62
2022/08/29 09:49:14;;;;;;;6.93;2.92;;;21.70;99.90;;;;;;5057251;28;20044;-62
2022/08/29 09:51:47;;;;;;;9.50;3.00;;;21.70;99.90;;;;;;5055601;28;20048;-62
2022/08/29 09:54:17;;;;;;;13.45;3.78;;;21.60;99.90;;;;;;5047754;28;20050;-62
2022/08/29 09:57:06;;;;;;;12.38;3.33;;;21.50;99.90;;;;;;5063613;28;20048;-61
2022/08/29 09:59:36;;;;;;;9.55;3.10;;;21.50;99.90;;;;;;5067370;28;20510;-62
2022/08/29 10:02:27;;;;;;;9.95;3.08;;;21.50;99.90;;;;;;5063549;28;20053;-61
2022/08/29 10:04:54;;;;;;;18.20;3.88;;;21.50;99.90;;;;;;5062689;28;20357;-62
2022/08/29 10:07:31;;;;;;;12.68;4.53;;;21.40;99.90;;;;;;5056231;28;20047;-62
2022/08/29 10:10:05;;;;;;;9.40;3.33;;;21.30;99.90;;;;;;5077421;28;20514;-62
2022/08/29 10:12:39;;;;;;;11.82;3.65;;;21.10;99.90;;;;;;5059676;28;20441;-62
2022/08/29 10:15:11;;;;;;;19.40;4.40;;;21.00;99.90;;;;;;5057431;28;20051;-62
2022/08/29 10:20:51;;;;;;;10.23;4.10;;;20.90;99.90;;;;;;5062862;28;20051;-62
2022/08/29 10:23:52;;;;;;;10.00;3.72;;;20.80;99.90;;;;;;5050583;28;20040;-62
2022/08/29 10:26:30;;;;;;;15.23;4.28;;;20.90;99.90;;;;;;5044944;28;20043;-62
2022/08/29 10:29:08;;;;;;;10.30;3.05;;;21.00;99.90;;;;;;5065347;28;20063;-60
2022/08/29 10:32:08;;;;;;;9.25;3.22;;;21.20;99.90;;;;;;5066548;28;20122;-62
2022/08/29 10:35:08;;;;;;;10.13;3.25;;;21.30;99.90;;;;;;5059456;28;20048;-61
2022/08/29 10:37:40;;;;;;;9.77;3.20;;;21.30;99.90;;;;;;5066230;28;20072;-61
2022/08/29 10:40:24;;;;;;;12.05;3.25;;;21.30;99.90;;;;;;5044331;28;20035;-61
2022/08/29 10:43:01;;;;;;;12.35;4.00;;;21.30;99.90;;;;;;5057671;28;20522;-62
2022/08/29 10:45:44;;;;;;;7.43;3.20;;;21.30;99.90;;;;;;5040189;28;20266;-60
2022/08/29 10:48:20;;;;;;;10.27;3.55;;;21.30;99.90;;;;;;5058331;28;20394;-62
2022/08/29 10:51:06;;;;;;;11.15;3.10;;;21.30;99.90;;;;;;5074775;28;20123;-61
2022/08/29 10:53:48;;;;;;;12.98;3.72;;;21.30;99.90;;;;;;5057515;28;20055;-60
2022/08/29 10:56:39;;;;;;;8.05;3.78;;;21.30;99.90;;;;;;5055991;28;20527;-60
2022/08/29 11:00:03;;;;;;;12.75;4.00;;;21.30;99.90;;;;;;5042170;28;20036;-60
2022/08/29 11:02:47;;;;;;;10.85;3.65;;;21.30;99.90;;;;;;4972440;28;20132;-62
2022/08/29 11:05:19;;;;;;;12.45;4.45;;;21.30;99.90;;;;;;5077563;28;20083;-60
2022/08/29 11:08:08;;;;;;;13.13;3.78;;;21.30;99.90;;;;;;5046132;28;20089;-62
2022/08/29 11:10:43;;;;;;;12.25;3.55;;;21.30;99.90;;;;;;5061787;28;20035;-60
2022/08/29 11:13:14;;;;;;;15.02;3.60;;;21.20;99.90;;;;;;5055190;28;20041;-60
2022/08/29 11:16:05;;;;;;;14.88;4.03;;;21.20;99.90;;;;;;5051821;28;20203;-62
2022/08/29 11:18:43;;;;;;;13.48;3.70;;;21.20;99.90;;;;;;5076468;28;20032;-62
2022/08/29 11:21:18;;;;;;;7.95;3.45;;;21.00;99.90;;;;;;5076864;28;20055;-61
2022/08/29 11:23:46;;;;;;;12.20;3.38;;;21.00;99.90;;;;;;5051918;28;20040;-60
2022/08/29 11:26:32;;;;;;;11.43;3.67;;;21.00;99.90;;;;;;5078903;28;20040;-60
2022/08/29 11:29:16;;;;;;;14.50;3.72;;;21.00;99.90;;;;;;5062500;28;20562;-61
2022/08/29 11:31:53;;;;;;;11.73;4.40;;;21.00;99.90;;;;;;5037788;28;20067;-61
2022/08/29 11:34:38;;;;;;;9.50;4.03;;;21.10;99.90;;;;;;5050416;28;20175;-59
2022/08/29 11:37:20;;;;;;;9.20;3.85;;;21.10;99.90;;;;;;5070015;28;20052;-60
2022/08/29 11:39:56;;;;;;;11.02;4.03;;;21.00;99.90;;;;;;5040098;28;20526;-60
2022/08/29 11:42:27;;;;;;;5.32;3.30;;;20.90;99.90;;;;;;5049572;28;20125;-60
2022/08/29 11:44:56;;;;;;;9.70;3.78;;;20.80;99.90;;;;;;5050680;28;20047;-60
2022/08/29 11:47:34;;;;;;;10.55;3.47;;;20.80;99.90;;;;;;5055541;28;20070;-60
2022/08/29 11:50:30;;;;;;;11.05;3.78;;;20.70;99.90;;;;;;5053526;28;20043;-60
2022/08/29 11:52:57;;;;;;;12.60;3.72;;;20.80;99.90;;;;;;5053391;28;20205;-60
2022/08/29 11:55:29;;;;;;;11.95;3.30;;;20.60;99.90;;;;;;5050132;28;20592;-60
2022/08/29 11:57:58;;;;;;;10.50;3.25;;;20.70;99.90;;;;;;5045897;28;20137;-60
2022/08/29 12:00:26;;;;;;;10.05;3.38;;;20.70;99.90;;;;;;5067640;28;20041;-60
2022/08/29 12:02:52;;;;;;;11.80;3.92;;;20.70;99.90;;;;;;5034565;28;20305;-60
2022/08/29 12:05:19;;;;;;;10.07;4.03;;;20.70;99.90;;;;;;5051530;28;20170;-60
2022/08/29 12:08:11;;;;;;;15.73;4.82;;;20.70;99.90;;;;;;5044969;28;20047;-61
2022/08/29 12:11:09;;;;;;;12.30;3.50;;;20.70;99.90;;;;;;5049260;28;20037;-61
2022/08/29 12:13:47;;;;;;;9.35;3.90;;;20.70;99.90;;;;;;5020848;28;20566;-60
2022/08/29 12:16:22;;;;;;;11.82;4.00;;;20.70;99.90;;;;;;5042519;28;20052;-61
2022/08/29 12:18:53;;;;;;;12.70;4.03;;;20.70;99.90;;;;;;5038524;28;20708;-61
2022/08/29 12:21:37;;;;;;;14.57;4.18;;;20.70;99.90;;;;;;5046595;28;20102;-61
2022/08/29 12:24:06;;;;;;;14.00;4.45;;;20.70;99.90;;;;;;5049239;28;20076;-61
2022/08/29 12:26:45;;;;;;;9.20;4.57;;;20.70;99.90;;;;;;5064160;28;20036;-61
2022/08/29 12:29:29;;;;;;;10.63;4.43;;;20.60;99.90;;;;;;5066662;28;20040;-61
2022/08/29 12:32:37;;;;;;;14.35;4.32;;;20.60;99.90;;;;;;5060878;28;20036;-61
2022/08/29 12:35:21;;;;;;;11.68;3.88;;;20.60;99.90;;;;;;5051593;28;20503;-61
2022/08/29 12:38:07;;;;;;;13.30;4.22;;;20.50;99.90;;;;;;5083645;28;20169;-61
2022/08/29 12:41:13;;;;;;;9.40;3.50;;;20.40;99.90;;;;;;5063195;28;20044;-61
2022/08/29 12:43:42;;;;;;;11.27;3.30;;;20.30;99.90;;;;;;5073103;28;20040;-61
2022/08/29 12:46:39;;;;;;;11.18;3.95;;;20.20;99.90;;;;;;5049199;28;20040;-61
2022/08/29 12:49:21;;;;;;;10.10;4.28;;;20.20;99.90;;;;;;5061885;28;20757;-61
2022/08/29 12:52:01;;;;;;;10.38;3.90;;;20.10;99.90;;;;;;5036015;28;20036;-61
2022/08/29 12:54:34;;;;;;;11.55;3.75;;;20.20;99.90;;;;;;5042795;28;20146;-61
2022/08/29 12:57:01;;;;;;;14.23;3.80;;;20.20;99.90;;;;;;5068594;28;20123;-61
2022/08/29 12:59:28;;;;;;;11.48;3.05;;;20.20;99.90;;;;;;5061231;28;20055;-61
2022/08/29 13:01:55;;;;;;;13.25;3.80;;;20.20;99.90;;;;;;5059794;28;20052;-61
2022/08/29 13:04:31;;;;;;;11.32;3.20;;;20.20;99.90;;;;;;5051183;28;20052;-61
2022/08/29 13:07:14;;;;;;;9.57;3.17;;;20.20;99.90;;;;;;5056521;28;20150;-61
2022/08/29 13:09:41;;;;;;;9.00;2.50;;;20.20;99.90;;;;;;5059687;28;20062;-61
2022/08/29 13:12:21;;;;;;;12.70;3.58;;;20.20;99.90;;;;;;5061012;28;20051;-62
2022/08/29 13:14:52;;;;;;;13.55;3.25;;;20.30;99.90;;;;;;5060485;28;20040;-61